sensor_id;sensor_type;location;lat;lon;timestamp;P1;durP1;ratioP1;P2;durP2;ratioP2
67839;SDS011;54636;51.684;5.142;2022-08-01T00:00:36;13.73;;;7.72;;
67839;SDS011;54636;51.684;5.142;2022-08-01T00:03:02;11.68;;;8.38;;
67839;SDS011;54636;51.684;5.142;2022-08-01T00:05:28;9.82;;;7.90;;
67839;SDS011;54636;51.684;5.142;2022-08-01T00:07:53;13.20;;;8.88;;
67839;SDS011;54636;51.684;5.142;2022-08-01T00:10:18;11.25;;;7.80;;
67839;SDS011;54636;51.684;5.142;2022-08-01T00:12:44;9.43;;;8.25;;
67839;SDS011;54636;51.684;5.142;2022-08-01T00:15:10;9.82;;;7.70;;
67839;SDS011;54636;51.684;5.142;2022-08-01T00:17:37;13.52;;;8.30;;
67839;SDS011;54636;51.684;5.142;2022-08-01T00:20:05;11.65;;;8.60;;
67839;SDS011;54636;51.684;5.142;2022-08-01T00:22:33;9.15;;;7.85;;
67839;SDS011;54636;51.684;5.142;2022-08-01T00:24:58;11.73;;;8.55;;
67839;SDS011;54636;51.684;5.142;2022-08-01T00:27:24;10.23;;;9.23;;
67839;SDS011;54636;51.684;5.142;2022-08-01T00:29:52;11.52;;;8.43;;
67839;SDS011;54636;51.684;5.142;2022-08-01T00:32:18;13.70;;;8.90;;
67839;SDS011;54636;51.684;5.142;2022-08-01T00:34:44;10.90;;;8.40;;
67839;SDS011;54636;51.684;5.142;2022-08-01T00:37:10;11.25;;;8.77;;
67839;SDS011;54636;51.684;5.142;2022-08-01T00:39:38;8.77;;;7.85;;
67839;SDS011;54636;51.684;5.142;2022-08-01T00:42:07;10.77;;;7.53;;
67839;SDS011;54636;51.684;5.142;2022-08-01T00:44:35;8.75;;;7.45;;
67839;SDS011;54636;51.684;5.142;2022-08-01T00:47:00;13.40;;;8.15;;
67839;SDS011;54636;51.684;5.142;2022-08-01T00:49:26;13.32;;;7.88;;
67839;SDS011;54636;51.684;5.142;2022-08-01T00:51:52;12.20;;;7.95;;
67839;SDS011;54636;51.684;5.142;2022-08-01T00:54:18;10.30;;;7.85;;
67839;SDS011;54636;51.684;5.142;2022-08-01T00:56:43;9.00;;;7.43;;
67839;SDS011;54636;51.684;5.142;2022-08-01T00:59:11;11.90;;;7.57;;
67839;SDS011;54636;51.684;5.142;2022-08-01T01:01:37;11.68;;;7.18;;
67839;SDS011;54636;51.684;5.142;2022-08-01T01:04:03;8.65;;;7.68;;
67839;SDS011;54636;51.684;5.142;2022-08-01T01:14:29;7.35;;;6.65;;
67839;SDS011;54636;51.684;5.142;2022-08-01T01:17:03;10.55;;;7.80;;
67839;SDS011;54636;51.684;5.142;2022-08-01T01:19:33;8.20;;;7.25;;
67839;SDS011;54636;51.684;5.142;2022-08-01T01:24:47;8.98;;;7.35;;
67839;SDS011;54636;51.684;5.142;2022-08-01T01:30:53;8.05;;;6.95;;
67839;SDS011;54636;51.684;5.142;2022-08-01T01:33:25;12.05;;;7.65;;
67839;SDS011;54636;51.684;5.142;2022-08-01T01:36:00;10.68;;;7.45;;
67839;SDS011;54636;51.684;5.142;2022-08-01T01:38:39;9.77;;;7.43;;
67839;SDS011;54636;51.684;5.142;2022-08-01T01:41:09;9.65;;;7.05;;
67839;SDS011;54636;51.684;5.142;2022-08-01T01:43:37;11.38;;;7.22;;
67839;SDS011;54636;51.684;5.142;2022-08-01T01:46:04;8.10;;;7.28;;
67839;SDS011;54636;51.684;5.142;2022-08-01T01:48:32;9.65;;;7.00;;
67839;SDS011;54636;51.684;5.142;2022-08-01T01:50:59;8.90;;;7.43;;
67839;SDS011;54636;51.684;5.142;2022-08-01T01:53:26;10.15;;;7.88;;
67839;SDS011;54636;51.684;5.142;2022-08-01T01:55:53;8.90;;;7.13;;
67839;SDS011;54636;51.684;5.142;2022-08-01T01:58:22;10.68;;;7.43;;
67839;SDS011;54636;51.684;5.142;2022-08-01T02:00:52;9.05;;;7.05;;
67839;SDS011;54636;51.684;5.142;2022-08-01T02:03:20;12.40;;;7.37;;
67839;SDS011;54636;51.684;5.142;2022-08-01T02:05:47;9.57;;;8.15;;
67839;SDS011;54636;51.684;5.142;2022-08-01T02:08:15;8.25;;;7.00;;
67839;SDS011;54636;51.684;5.142;2022-08-01T02:10:42;10.65;;;7.78;;
67839;SDS011;54636;51.684;5.142;2022-08-01T02:13:32;10.13;;;8.25;;
67839;SDS011;54636;51.684;5.142;2022-08-01T02:16:02;8.98;;;8.07;;
67839;SDS011;54636;51.684;5.142;2022-08-01T02:18:28;10.10;;;8.13;;
67839;SDS011;54636;51.684;5.142;2022-08-01T02:20:54;11.10;;;7.55;;
67839;SDS011;54636;51.684;5.142;2022-08-01T02:23:22;11.27;;;8.75;;
67839;SDS011;54636;51.684;5.142;2022-08-01T02:25:52;11.55;;;8.90;;
67839;SDS011;54636;51.684;5.142;2022-08-01T02:28:21;10.55;;;8.45;;
67839;SDS011;54636;51.684;5.142;2022-08-01T02:30:53;14.77;;;8.48;;
67839;SDS011;54636;51.684;5.142;2022-08-01T02:33:56;10.73;;;8.50;;
67839;SDS011;54636;51.684;5.142;2022-08-01T02:36:16;13.77;;;8.75;;
67839;SDS011;54636;51.684;5.142;2022-08-01T02:38:44;11.63;;;7.78;;
67839;SDS011;54636;51.684;5.142;2022-08-01T02:41:13;12.38;;;8.05;;
67839;SDS011;54636;51.684;5.142;2022-08-01T02:43:45;9.40;;;8.07;;
67839;SDS011;54636;51.684;5.142;2022-08-01T02:46:17;12.27;;;7.75;;
67839;SDS011;54636;51.684;5.142;2022-08-01T02:48:48;12.32;;;7.63;;
67839;SDS011;54636;51.684;5.142;2022-08-01T02:51:16;9.20;;;8.05;;
67839;SDS011;54636;51.684;5.142;2022-08-01T02:53:44;7.80;;;7.00;;
67839;SDS011;54636;51.684;5.142;2022-08-01T02:56:12;7.63;;;6.55;;
67839;SDS011;54636;51.684;5.142;2022-08-01T02:58:38;7.95;;;6.82;;
67839;SDS011;54636;51.684;5.142;2022-08-01T03:01:05;9.55;;;7.00;;
67839;SDS011;54636;51.684;5.142;2022-08-01T03:03:33;11.55;;;6.85;;
67839;SDS011;54636;51.684;5.142;2022-08-01T03:05:59;9.80;;;7.07;;
67839;SDS011;54636;51.684;5.142;2022-08-01T03:08:26;8.38;;;7.50;;
67839;SDS011;54636;51.684;5.142;2022-08-01T03:10:54;8.80;;;7.68;;
67839;SDS011;54636;51.684;5.142;2022-08-01T03:13:22;8.30;;;7.38;;
67839;SDS011;54636;51.684;5.142;2022-08-01T03:15:50;11.10;;;8.63;;
67839;SDS011;54636;51.684;5.142;2022-08-01T03:18:18;8.57;;;7.70;;
67839;SDS011;54636;51.684;5.142;2022-08-01T03:20:43;11.48;;;8.23;;
67839;SDS011;54636;51.684;5.142;2022-08-01T03:23:11;11.15;;;7.78;;
67839;SDS011;54636;51.684;5.142;2022-08-01T03:25:38;16.77;;;8.13;;
67839;SDS011;54636;51.684;5.142;2022-08-01T03:28:06;12.40;;;8.85;;
67839;SDS011;54636;51.684;5.142;2022-08-01T03:30:33;8.93;;;7.88;;
67839;SDS011;54636;51.684;5.142;2022-08-01T03:33:01;13.45;;;7.60;;
67839;SDS011;54636;51.684;5.142;2022-08-01T03:35:33;12.32;;;8.85;;
67839;SDS011;54636;51.684;5.142;2022-08-01T03:38:01;10.20;;;8.57;;
67839;SDS011;54636;51.684;5.142;2022-08-01T03:40:35;10.20;;;9.10;;
67839;SDS011;54636;51.684;5.142;2022-08-01T03:43:12;10.55;;;8.45;;
67839;SDS011;54636;51.684;5.142;2022-08-01T03:45:45;12.07;;;9.35;;
67839;SDS011;54636;51.684;5.142;2022-08-01T03:48:16;11.70;;;8.70;;
67839;SDS011;54636;51.684;5.142;2022-08-01T03:50:44;18.02;;;8.63;;
67839;SDS011;54636;51.684;5.142;2022-08-01T03:53:13;13.52;;;9.23;;
67839;SDS011;54636;51.684;5.142;2022-08-01T03:55:39;13.68;;;8.85;;
67839;SDS011;54636;51.684;5.142;2022-08-01T03:58:07;9.75;;;8.57;;
67839;SDS011;54636;51.684;5.142;2022-08-01T04:00:35;12.75;;;8.57;;
67839;SDS011;54636;51.684;5.142;2022-08-01T04:03:03;12.90;;;8.10;;
67839;SDS011;54636;51.684;5.142;2022-08-01T04:05:30;10.05;;;7.10;;
67839;SDS011;54636;51.684;5.142;2022-08-01T04:07:56;12.43;;;7.88;;
67839;SDS011;54636;51.684;5.142;2022-08-01T04:10:22;7.50;;;6.63;;
67839;SDS011;54636;51.684;5.142;2022-08-01T04:12:48;8.85;;;6.80;;
67839;SDS011;54636;51.684;5.142;2022-08-01T04:15:14;13.45;;;6.63;;
67839;SDS011;54636;51.684;5.142;2022-08-01T04:17:40;7.38;;;5.97;;
67839;SDS011;54636;51.684;5.142;2022-08-01T04:20:05;8.40;;;5.57;;
67839;SDS011;54636;51.684;5.142;2022-08-01T04:22:31;7.13;;;5.07;;
67839;SDS011;54636;51.684;5.142;2022-08-01T04:24:57;7.13;;;5.10;;
67839;SDS011;54636;51.684;5.142;2022-08-01T04:27:32;8.57;;;4.70;;
67839;SDS011;54636;51.684;5.142;2022-08-01T04:30:01;6.97;;;5.13;;
67839;SDS011;54636;51.684;5.142;2022-08-01T04:32:27;4.50;;;4.10;;
67839;SDS011;54636;51.684;5.142;2022-08-01T04:34:56;9.07;;;5.50;;
67839;SDS011;54636;51.684;5.142;2022-08-01T04:37:24;5.47;;;4.32;;
67839;SDS011;54636;51.684;5.142;2022-08-01T04:39:53;5.28;;;4.55;;
67839;SDS011;54636;51.684;5.142;2022-08-01T04:42:24;5.18;;;4.63;;
67839;SDS011;54636;51.684;5.142;2022-08-01T04:44:50;4.57;;;4.20;;
67839;SDS011;54636;51.684;5.142;2022-08-01T04:47:15;4.68;;;4.20;;
67839;SDS011;54636;51.684;5.142;2022-08-01T04:49:41;6.43;;;3.83;;
67839;SDS011;54636;51.684;5.142;2022-08-01T04:52:11;4.07;;;3.65;;
67839;SDS011;54636;51.684;5.142;2022-08-01T04:54:37;5.15;;;4.28;;
67839;SDS011;54636;51.684;5.142;2022-08-01T04:57:03;4.32;;;3.97;;
67839;SDS011;54636;51.684;5.142;2022-08-01T04:59:29;5.47;;;4.63;;
67839;SDS011;54636;51.684;5.142;2022-08-01T05:02:10;6.82;;;4.15;;
67839;SDS011;54636;51.684;5.142;2022-08-01T05:04:41;4.75;;;4.32;;
67839;SDS011;54636;51.684;5.142;2022-08-01T05:07:08;4.78;;;4.30;;
67839;SDS011;54636;51.684;5.142;2022-08-01T05:09:34;8.52;;;4.75;;
67839;SDS011;54636;51.684;5.142;2022-08-01T05:12:01;6.45;;;4.85;;
67839;SDS011;54636;51.684;5.142;2022-08-01T05:14:28;4.13;;;3.80;;
67839;SDS011;54636;51.684;5.142;2022-08-01T05:16:57;6.07;;;4.93;;
67839;SDS011;54636;51.684;5.142;2022-08-01T05:19:28;6.55;;;4.68;;
67839;SDS011;54636;51.684;5.142;2022-08-01T05:21:54;6.05;;;4.05;;
67839;SDS011;54636;51.684;5.142;2022-08-01T05:24:20;4.45;;;3.97;;
67839;SDS011;54636;51.684;5.142;2022-08-01T05:26:45;4.32;;;3.67;;
67839;SDS011;54636;51.684;5.142;2022-08-01T05:29:11;4.32;;;3.63;;
67839;SDS011;54636;51.684;5.142;2022-08-01T05:31:36;6.50;;;3.53;;
67839;SDS011;54636;51.684;5.142;2022-08-01T05:34:02;6.88;;;3.67;;
67839;SDS011;54636;51.684;5.142;2022-08-01T05:36:27;5.60;;;3.20;;
67839;SDS011;54636;51.684;5.142;2022-08-01T05:38:55;6.03;;;4.13;;
67839;SDS011;54636;51.684;5.142;2022-08-01T05:41:21;3.50;;;3.15;;
67839;SDS011;54636;51.684;5.142;2022-08-01T05:43:46;3.10;;;2.90;;
67839;SDS011;54636;51.684;5.142;2022-08-01T05:46:12;4.47;;;3.65;;
67839;SDS011;54636;51.684;5.142;2022-08-01T05:48:37;3.08;;;2.75;;
67839;SDS011;54636;51.684;5.142;2022-08-01T05:51:06;5.00;;;3.00;;
67839;SDS011;54636;51.684;5.142;2022-08-01T05:53:31;2.92;;;2.58;;
67839;SDS011;54636;51.684;5.142;2022-08-01T05:55:59;3.22;;;2.60;;
67839;SDS011;54636;51.684;5.142;2022-08-01T05:58:24;3.00;;;2.65;;
67839;SDS011;54636;51.684;5.142;2022-08-01T06:00:53;3.22;;;2.20;;
67839;SDS011;54636;51.684;5.142;2022-08-01T06:03:18;3.20;;;2.30;;
67839;SDS011;54636;51.684;5.142;2022-08-01T06:05:44;4.47;;;2.10;;
67839;SDS011;54636;51.684;5.142;2022-08-01T06:08:09;2.20;;;1.83;;
67839;SDS011;54636;51.684;5.142;2022-08-01T06:10:34;1.65;;;1.55;;
67839;SDS011;54636;51.684;5.142;2022-08-01T06:13:00;2.63;;;1.65;;
67839;SDS011;54636;51.684;5.142;2022-08-01T06:15:28;5.35;;;2.55;;
67839;SDS011;54636;51.684;5.142;2022-08-01T06:17:54;1.70;;;1.60;;
67839;SDS011;54636;51.684;5.142;2022-08-01T06:20:20;4.55;;;1.90;;
67839;SDS011;54636;51.684;5.142;2022-08-01T06:22:46;1.90;;;1.70;;
67839;SDS011;54636;51.684;5.142;2022-08-01T06:25:11;1.75;;;1.38;;
67839;SDS011;54636;51.684;5.142;2022-08-01T06:27:37;2.83;;;1.85;;
67839;SDS011;54636;51.684;5.142;2022-08-01T06:30:03;2.17;;;1.50;;
67839;SDS011;54636;51.684;5.142;2022-08-01T06:32:29;4.78;;;1.10;;
67839;SDS011;54636;51.684;5.142;2022-08-01T06:34:56;3.53;;;1.50;;
67839;SDS011;54636;51.684;5.142;2022-08-01T06:37:21;4.18;;;1.50;;
67839;SDS011;54636;51.684;5.142;2022-08-01T06:39:47;2.78;;;1.20;;
67839;SDS011;54636;51.684;5.142;2022-08-01T06:42:13;4.63;;;1.20;;
67839;SDS011;54636;51.684;5.142;2022-08-01T06:44:39;2.15;;;1.27;;
67839;SDS011;54636;51.684;5.142;2022-08-01T06:47:05;1.48;;;0.95;;
67839;SDS011;54636;51.684;5.142;2022-08-01T06:49:30;1.33;;;1.10;;
67839;SDS011;54636;51.684;5.142;2022-08-01T06:51:55;1.38;;;1.10;;
67839;SDS011;54636;51.684;5.142;2022-08-01T06:54:21;3.35;;;1.08;;
67839;SDS011;54636;51.684;5.142;2022-08-01T06:56:46;0.90;;;0.90;;
67839;SDS011;54636;51.684;5.142;2022-08-01T06:59:12;1.77;;;1.33;;
67839;SDS011;54636;51.684;5.142;2022-08-01T07:01:37;0.90;;;0.90;;
67839;SDS011;54636;51.684;5.142;2022-08-01T07:04:02;5.50;;;1.58;;
67839;SDS011;54636;51.684;5.142;2022-08-01T07:06:28;1.25;;;1.10;;
67839;SDS011;54636;51.684;5.142;2022-08-01T07:08:54;1.80;;;1.10;;
67839;SDS011;54636;51.684;5.142;2022-08-01T07:11:20;1.70;;;1.38;;
67839;SDS011;54636;51.684;5.142;2022-08-01T07:13:47;1.30;;;1.17;;
67839;SDS011;54636;51.684;5.142;2022-08-01T07:16:14;1.67;;;1.10;;
67839;SDS011;54636;51.684;5.142;2022-08-01T07:18:40;3.20;;;2.00;;
67839;SDS011;54636;51.684;5.142;2022-08-01T07:21:06;1.00;;;1.00;;
67839;SDS011;54636;51.684;5.142;2022-08-01T07:23:31;3.00;;;1.75;;
67839;SDS011;54636;51.684;5.142;2022-08-01T07:25:57;1.20;;;1.10;;
67839;SDS011;54636;51.684;5.142;2022-08-01T07:28:22;2.00;;;1.00;;
67839;SDS011;54636;51.684;5.142;2022-08-01T07:30:48;1.70;;;1.20;;
67839;SDS011;54636;51.684;5.142;2022-08-01T07:33:13;1.55;;;1.40;;
67839;SDS011;54636;51.684;5.142;2022-08-01T07:35:39;1.30;;;1.20;;
67839;SDS011;54636;51.684;5.142;2022-08-01T07:38:05;2.00;;;1.77;;
67839;SDS011;54636;51.684;5.142;2022-08-01T07:40:31;2.30;;;1.80;;
67839;SDS011;54636;51.684;5.142;2022-08-01T07:42:57;2.95;;;2.05;;
67839;SDS011;54636;51.684;5.142;2022-08-01T07:45:23;2.10;;;2.00;;
67839;SDS011;54636;51.684;5.142;2022-08-01T07:47:49;3.05;;;2.08;;
67839;SDS011;54636;51.684;5.142;2022-08-01T07:50:15;2.10;;;2.00;;
67839;SDS011;54636;51.684;5.142;2022-08-01T07:52:41;1.80;;;1.70;;
67839;SDS011;54636;51.684;5.142;2022-08-01T07:55:10;2.15;;;1.75;;
67839;SDS011;54636;51.684;5.142;2022-08-01T07:57:36;2.38;;;1.90;;
67839;SDS011;54636;51.684;5.142;2022-08-01T08:00:04;2.13;;;2.00;;
67839;SDS011;54636;51.684;5.142;2022-08-01T08:02:31;4.15;;;2.00;;
67839;SDS011;54636;51.684;5.142;2022-08-01T08:04:56;3.53;;;2.55;;
67839;SDS011;54636;51.684;5.142;2022-08-01T08:07:22;2.35;;;1.80;;
67839;SDS011;54636;51.684;5.142;2022-08-01T08:09:47;3.22;;;1.50;;
67839;SDS011;54636;51.684;5.142;2022-08-01T08:12:12;2.13;;;1.38;;
67839;SDS011;54636;51.684;5.142;2022-08-01T08:14:40;2.35;;;1.60;;
67839;SDS011;54636;51.684;5.142;2022-08-01T08:17:06;1.70;;;1.60;;
67839;SDS011;54636;51.684;5.142;2022-08-01T08:19:31;2.75;;;1.50;;
67839;SDS011;54636;51.684;5.142;2022-08-01T08:21:58;3.78;;;1.83;;
67839;SDS011;54636;51.684;5.142;2022-08-01T08:24:25;4.32;;;1.63;;
67839;SDS011;54636;51.684;5.142;2022-08-01T08:26:59;1.38;;;1.27;;
67839;SDS011;54636;51.684;5.142;2022-08-01T08:29:26;2.78;;;1.35;;
67839;SDS011;54636;51.684;5.142;2022-08-01T08:31:54;2.08;;;1.20;;
67839;SDS011;54636;51.684;5.142;2022-08-01T08:34:20;1.50;;;1.40;;
67839;SDS011;54636;51.684;5.142;2022-08-01T08:36:46;0.93;;;0.80;;
67839;SDS011;54636;51.684;5.142;2022-08-01T08:39:11;1.05;;;0.98;;
67839;SDS011;54636;51.684;5.142;2022-08-01T08:41:37;1.13;;;0.70;;
67839;SDS011;54636;51.684;5.142;2022-08-01T08:44:06;0.77;;;0.77;;
67839;SDS011;54636;51.684;5.142;2022-08-01T08:46:33;0.98;;;0.70;;
67839;SDS011;54636;51.684;5.142;2022-08-01T08:49:06;0.70;;;0.70;;
67839;SDS011;54636;51.684;5.142;2022-08-01T08:51:33;1.33;;;0.73;;
67839;SDS011;54636;51.684;5.142;2022-08-01T08:54:03;0.90;;;0.90;;
67839;SDS011;54636;51.684;5.142;2022-08-01T08:56:30;1.10;;;0.88;;
67839;SDS011;54636;51.684;5.142;2022-08-01T08:58:59;1.08;;;0.70;;
67839;SDS011;54636;51.684;5.142;2022-08-01T09:01:25;0.60;;;0.60;;
67839;SDS011;54636;51.684;5.142;2022-08-01T09:03:51;1.00;;;0.88;;
67839;SDS011;54636;51.684;5.142;2022-08-01T09:06:17;1.63;;;1.08;;
67839;SDS011;54636;51.684;5.142;2022-08-01T09:08:42;1.20;;;0.85;;
67839;SDS011;54636;51.684;5.142;2022-08-01T09:11:11;2.45;;;0.95;;
67839;SDS011;54636;51.684;5.142;2022-08-01T09:13:36;2.35;;;0.93;;
67839;SDS011;54636;51.684;5.142;2022-08-01T09:16:02;1.92;;;1.25;;
67839;SDS011;54636;51.684;5.142;2022-08-01T09:18:33;5.70;;;2.13;;
67839;SDS011;54636;51.684;5.142;2022-08-01T09:21:13;7.05;;;1.85;;
67839;SDS011;54636;51.684;5.142;2022-08-01T09:23:48;2.58;;;1.67;;
67839;SDS011;54636;51.684;5.142;2022-08-01T09:26:16;6.68;;;2.17;;
67839;SDS011;54636;51.684;5.142;2022-08-01T09:28:52;1.92;;;1.70;;
67839;SDS011;54636;51.684;5.142;2022-08-01T09:31:18;1.30;;;1.00;;
67839;SDS011;54636;51.684;5.142;2022-08-01T09:33:54;4.20;;;0.90;;
67839;SDS011;54636;51.684;5.142;2022-08-01T09:36:23;2.05;;;1.55;;
67839;SDS011;54636;51.684;5.142;2022-08-01T09:38:50;2.55;;;1.40;;
67839;SDS011;54636;51.684;5.142;2022-08-01T09:41:17;2.13;;;1.25;;
67839;SDS011;54636;51.684;5.142;2022-08-01T09:43:55;2.55;;;1.40;;
67839;SDS011;54636;51.684;5.142;2022-08-01T09:46:20;3.33;;;1.58;;
67839;SDS011;54636;51.684;5.142;2022-08-01T09:48:59;3.65;;;1.73;;
67839;SDS011;54636;51.684;5.142;2022-08-01T09:51:33;1.38;;;1.23;;
67839;SDS011;54636;51.684;5.142;2022-08-01T09:54:01;1.92;;;1.27;;
67839;SDS011;54636;51.684;5.142;2022-08-01T09:56:37;3.83;;;1.58;;
67839;SDS011;54636;51.684;5.142;2022-08-01T09:59:04;3.90;;;1.90;;
67839;SDS011;54636;51.684;5.142;2022-08-01T10:01:47;4.13;;;1.85;;
67839;SDS011;54636;51.684;5.142;2022-08-01T10:04:15;4.40;;;1.70;;
67839;SDS011;54636;51.684;5.142;2022-08-01T10:06:42;4.10;;;1.80;;
67839;SDS011;54636;51.684;5.142;2022-08-01T10:09:12;2.90;;;1.48;;
67839;SDS011;54636;51.684;5.142;2022-08-01T10:11:40;3.90;;;1.50;;
67839;SDS011;54636;51.684;5.142;2022-08-01T10:14:07;1.25;;;1.02;;
67839;SDS011;54636;51.684;5.142;2022-08-01T10:16:33;1.52;;;1.08;;
67839;SDS011;54636;51.684;5.142;2022-08-01T10:19:00;2.17;;;1.27;;
67839;SDS011;54636;51.684;5.142;2022-08-01T10:21:27;5.60;;;1.73;;
67839;SDS011;54636;51.684;5.142;2022-08-01T10:23:53;3.15;;;1.50;;
67839;SDS011;54636;51.684;5.142;2022-08-01T10:26:20;3.25;;;1.90;;
67839;SDS011;54636;51.684;5.142;2022-08-01T10:28:46;3.42;;;1.90;;
67839;SDS011;54636;51.684;5.142;2022-08-01T10:31:13;5.70;;;1.98;;
67839;SDS011;54636;51.684;5.142;2022-08-01T10:33:41;4.32;;;2.10;;
67839;SDS011;54636;51.684;5.142;2022-08-01T10:36:07;1.83;;;1.73;;
67839;SDS011;54636;51.684;5.142;2022-08-01T10:38:36;2.20;;;1.75;;
67839;SDS011;54636;51.684;5.142;2022-08-01T10:41:02;3.08;;;1.65;;
67839;SDS011;54636;51.684;5.142;2022-08-01T10:43:29;4.97;;;1.92;;
67839;SDS011;54636;51.684;5.142;2022-08-01T10:45:54;5.03;;;2.22;;
67839;SDS011;54636;51.684;5.142;2022-08-01T10:48:22;4.18;;;1.60;;
67839;SDS011;54636;51.684;5.142;2022-08-01T10:50:55;3.95;;;2.17;;
67839;SDS011;54636;51.684;5.142;2022-08-01T10:53:27;5.30;;;1.77;;
67839;SDS011;54636;51.684;5.142;2022-08-01T10:58:28;4.65;;;1.75;;
67839;SDS011;54636;51.684;5.142;2022-08-01T11:03:43;3.72;;;1.70;;
67839;SDS011;54636;51.684;5.142;2022-08-01T11:08:57;4.85;;;1.92;;
67839;SDS011;54636;51.684;5.142;2022-08-01T11:11:23;4.10;;;1.80;;
67839;SDS011;54636;51.684;5.142;2022-08-01T11:16:28;7.20;;;1.73;;
67839;SDS011;54636;51.684;5.142;2022-08-01T11:18:54;2.92;;;1.38;;
67839;SDS011;54636;51.684;5.142;2022-08-01T11:21:20;3.78;;;2.20;;
67839;SDS011;54636;51.684;5.142;2022-08-01T11:23:49;4.47;;;2.10;;
67839;SDS011;54636;51.684;5.142;2022-08-01T11:28:44;4.78;;;2.25;;
67839;SDS011;54636;51.684;5.142;2022-08-01T11:31:31;5.18;;;1.98;;
67839;SDS011;54636;51.684;5.142;2022-08-01T11:33:57;8.45;;;2.00;;
67839;SDS011;54636;51.684;5.142;2022-08-01T11:36:24;4.40;;;1.95;;
67839;SDS011;54636;51.684;5.142;2022-08-01T11:41:31;3.72;;;2.15;;
67839;SDS011;54636;51.684;5.142;2022-08-01T11:44:11;7.63;;;2.72;;
67839;SDS011;54636;51.684;5.142;2022-08-01T11:47:01;6.68;;;2.40;;
67839;SDS011;54636;51.684;5.142;2022-08-01T11:52:18;9.27;;;3.17;;
67839;SDS011;54636;51.684;5.142;2022-08-01T11:54:51;3.75;;;1.85;;
67839;SDS011;54636;51.684;5.142;2022-08-01T11:57:30;7.22;;;2.58;;
67839;SDS011;54636;51.684;5.142;2022-08-01T12:00:00;11.65;;;2.70;;
67839;SDS011;54636;51.684;5.142;2022-08-01T12:02:29;6.18;;;2.08;;
67839;SDS011;54636;51.684;5.142;2022-08-01T12:07:23;8.40;;;2.47;;
67839;SDS011;54636;51.684;5.142;2022-08-01T12:10:01;35.50;;;4.97;;
67839;SDS011;54636;51.684;5.142;2022-08-01T12:12:27;7.78;;;2.10;;
67839;SDS011;54636;51.684;5.142;2022-08-01T12:14:57;7.70;;;2.63;;
67839;SDS011;54636;51.684;5.142;2022-08-01T12:17:34;6.05;;;2.30;;
67839;SDS011;54636;51.684;5.142;2022-08-01T12:20:09;5.13;;;2.33;;
67839;SDS011;54636;51.684;5.142;2022-08-01T12:22:36;3.55;;;1.98;;
67839;SDS011;54636;51.684;5.142;2022-08-01T12:25:20;3.65;;;1.60;;
67839;SDS011;54636;51.684;5.142;2022-08-01T12:27:46;14.05;;;2.20;;
67839;SDS011;54636;51.684;5.142;2022-08-01T12:30:14;7.13;;;1.90;;
67839;SDS011;54636;51.684;5.142;2022-08-01T12:32:42;5.72;;;2.03;;
67839;SDS011;54636;51.684;5.142;2022-08-01T12:35:10;3.92;;;1.70;;
67839;SDS011;54636;51.684;5.142;2022-08-01T12:37:41;7.45;;;2.22;;
67839;SDS011;54636;51.684;5.142;2022-08-01T12:40:21;5.78;;;1.83;;
67839;SDS011;54636;51.684;5.142;2022-08-01T12:42:51;25.77;;;3.55;;
67839;SDS011;54636;51.684;5.142;2022-08-01T12:45:21;5.60;;;2.45;;
67839;SDS011;54636;51.684;5.142;2022-08-01T12:47:53;25.30;;;3.22;;
67839;SDS011;54636;51.684;5.142;2022-08-01T12:50:20;3.83;;;1.48;;
67839;SDS011;54636;51.684;5.142;2022-08-01T12:52:52;5.93;;;1.85;;
67839;SDS011;54636;51.684;5.142;2022-08-01T12:55:21;4.95;;;1.67;;
67839;SDS011;54636;51.684;5.142;2022-08-01T12:57:50;9.93;;;2.15;;
67839;SDS011;54636;51.684;5.142;2022-08-01T13:00:36;8.43;;;1.63;;
67839;SDS011;54636;51.684;5.142;2022-08-01T13:08:10;7.35;;;2.05;;
67839;SDS011;54636;51.684;5.142;2022-08-01T13:10:37;4.97;;;1.70;;
67839;SDS011;54636;51.684;5.142;2022-08-01T13:13:03;9.98;;;2.35;;
67839;SDS011;54636;51.684;5.142;2022-08-01T13:15:30;8.20;;;2.17;;
67839;SDS011;54636;51.684;5.142;2022-08-01T13:17:57;10.35;;;3.10;;
67839;SDS011;54636;51.684;5.142;2022-08-01T13:20:24;5.45;;;2.17;;
67839;SDS011;54636;51.684;5.142;2022-08-01T13:22:52;13.85;;;2.30;;
67839;SDS011;54636;51.684;5.142;2022-08-01T13:25:18;7.57;;;2.25;;
67839;SDS011;54636;51.684;5.142;2022-08-01T13:27:44;4.65;;;1.70;;
67839;SDS011;54636;51.684;5.142;2022-08-01T13:30:13;7.07;;;2.72;;
67839;SDS011;54636;51.684;5.142;2022-08-01T13:33:00;6.72;;;2.05;;
67839;SDS011;54636;51.684;5.142;2022-08-01T13:35:26;10.82;;;2.13;;
67839;SDS011;54636;51.684;5.142;2022-08-01T13:37:52;7.38;;;2.17;;
67839;SDS011;54636;51.684;5.142;2022-08-01T13:40:25;8.40;;;2.13;;
67839;SDS011;54636;51.684;5.142;2022-08-01T13:42:52;9.40;;;2.50;;
67839;SDS011;54636;51.684;5.142;2022-08-01T13:45:28;4.15;;;1.88;;
67839;SDS011;54636;51.684;5.142;2022-08-01T13:47:53;7.05;;;1.80;;
67839;SDS011;54636;51.684;5.142;2022-08-01T13:50:19;8.68;;;2.15;;
67839;SDS011;54636;51.684;5.142;2022-08-01T13:52:44;7.50;;;2.05;;
67839;SDS011;54636;51.684;5.142;2022-08-01T13:55:10;8.35;;;1.88;;
67839;SDS011;54636;51.684;5.142;2022-08-01T13:57:35;7.95;;;1.90;;
67839;SDS011;54636;51.684;5.142;2022-08-01T14:00:01;5.95;;;1.73;;
67839;SDS011;54636;51.684;5.142;2022-08-01T14:02:27;10.48;;;2.30;;
67839;SDS011;54636;51.684;5.142;2022-08-01T14:04:53;5.60;;;1.95;;
67839;SDS011;54636;51.684;5.142;2022-08-01T14:07:23;7.25;;;1.92;;
67839;SDS011;54636;51.684;5.142;2022-08-01T14:09:49;5.47;;;2.15;;
67839;SDS011;54636;51.684;5.142;2022-08-01T14:12:14;8.68;;;1.67;;
67839;SDS011;54636;51.684;5.142;2022-08-01T14:14:40;4.88;;;1.60;;
67839;SDS011;54636;51.684;5.142;2022-08-01T14:17:05;4.78;;;1.65;;
67839;SDS011;54636;51.684;5.142;2022-08-01T14:19:31;6.30;;;1.23;;
67839;SDS011;54636;51.684;5.142;2022-08-01T14:21:56;3.45;;;1.70;;
67839;SDS011;54636;51.684;5.142;2022-08-01T14:24:22;6.93;;;1.70;;
67839;SDS011;54636;51.684;5.142;2022-08-01T14:26:48;4.75;;;1.60;;
67839;SDS011;54636;51.684;5.142;2022-08-01T14:29:17;8.15;;;2.17;;
67839;SDS011;54636;51.684;5.142;2022-08-01T14:31:42;5.80;;;1.95;;
67839;SDS011;54636;51.684;5.142;2022-08-01T14:34:11;5.72;;;1.70;;
67839;SDS011;54636;51.684;5.142;2022-08-01T14:36:41;4.15;;;1.70;;
67839;SDS011;54636;51.684;5.142;2022-08-01T14:39:06;5.95;;;1.60;;
67839;SDS011;54636;51.684;5.142;2022-08-01T14:41:32;3.70;;;1.42;;
67839;SDS011;54636;51.684;5.142;2022-08-01T14:43:57;3.95;;;1.60;;
67839;SDS011;54636;51.684;5.142;2022-08-01T14:46:24;3.45;;;1.60;;
67839;SDS011;54636;51.684;5.142;2022-08-01T14:48:50;6.43;;;1.52;;
67839;SDS011;54636;51.684;5.142;2022-08-01T14:51:15;4.93;;;1.95;;
67839;SDS011;54636;51.684;5.142;2022-08-01T14:53:40;6.05;;;1.83;;
67839;SDS011;54636;51.684;5.142;2022-08-01T14:56:07;4.82;;;1.60;;
67839;SDS011;54636;51.684;5.142;2022-08-01T14:58:32;4.05;;;1.60;;
67839;SDS011;54636;51.684;5.142;2022-08-01T15:00:58;1.80;;;1.15;;
67839;SDS011;54636;51.684;5.142;2022-08-01T15:03:23;3.70;;;1.75;;
67839;SDS011;54636;51.684;5.142;2022-08-01T15:05:49;4.55;;;1.30;;
67839;SDS011;54636;51.684;5.142;2022-08-01T15:08:14;4.22;;;1.63;;
67839;SDS011;54636;51.684;5.142;2022-08-01T15:10:39;6.30;;;1.40;;
67839;SDS011;54636;51.684;5.142;2022-08-01T15:13:05;5.15;;;1.20;;
67839;SDS011;54636;51.684;5.142;2022-08-01T15:15:30;3.22;;;1.20;;
67839;SDS011;54636;51.684;5.142;2022-08-01T15:17:56;3.60;;;1.25;;
67839;SDS011;54636;51.684;5.142;2022-08-01T15:20:22;2.97;;;1.50;;
67839;SDS011;54636;51.684;5.142;2022-08-01T15:22:47;5.20;;;1.55;;
67839;SDS011;54636;51.684;5.142;2022-08-01T15:25:13;3.15;;;1.23;;
67839;SDS011;54636;51.684;5.142;2022-08-01T15:27:39;3.92;;;1.10;;
67839;SDS011;54636;51.684;5.142;2022-08-01T15:30:04;3.13;;;1.40;;